Terminal Aerodrome Forecast
Issued by NWS Melbourne, FL

Current Version | Previous Version | Text Only | Print | Product List | Glossary On
Versions: 1 2 3 4 5 6 7 8 9 10 11 12
000
FTUS42 KMLB 231739
TAFDAB
TAF
KDAB 231739Z 2318/2418 08011KT P6SM VCSH SCT030 BKN090
     FM240200 12008KT P6SM SCT035 BKN200
     FM241200 24008KT P6SM SCT035=

USA.gov is the U.S. government's official web portal to all federal, state and local government web resources and services.